Time;durP1;ratioP1;P1;durP2;ratioP2;P2;SDS_P1;SDS_P2;PMS_P1;PMS_P2;Temp;Humidity;BMP_temperature;BMP_pressure;BME280_temperature;BME280_humidity;BME280_pressure;Samples;Min_cycle;Max_cycle;Signal;HPM_P1;HPM_P2
2021/09/14 00:00:21;;;;;;;5.50;4.80;;;;;;;;;;5009360;28;20461;-72
2021/09/14 00:02:49;;;;;;;7.70;6.40;;;;;;;;;;5009443;28;20527;-72
2021/09/14 00:05:16;;;;;;;8.80;5.87;;;;;;;;;;5009924;28;20824;-71
2021/09/14 00:07:44;;;;;;;6.43;5.83;;;;;;;;;;5009155;28;20476;-71
2021/09/14 00:10:11;;;;;;;8.13;7.33;;;;;;;;;;5009839;28;20452;-72
2021/09/14 00:12:40;;;;;;;9.17;6.90;;;;;;;;;;5004774;28;20453;-72
2021/09/14 00:15:08;;;;;;;9.20;6.20;;;;;;;;;;5009725;28;20885;-72
2021/09/14 00:17:35;;;;;;;8.87;7.20;;;;;;;;;;5001407;28;20495;-72
2021/09/14 00:20:02;;;;;;;9.20;6.80;;;;;;;;;;5009587;28;20578;-72
2021/09/14 00:22:30;;;;;;;7.77;6.50;;;;;;;;;;5008427;28;20450;-72
2021/09/14 00:24:57;;;;;;;6.27;5.47;;;;;;;;;;5010075;28;20959;-72
2021/09/14 00:27:24;;;;;;;7.03;6.13;;;;;;;;;;5008875;28;20452;-73
2021/09/14 00:29:52;;;;;;;8.30;5.87;;;;;;;;;;5009527;28;20448;-72
2021/09/14 00:32:19;;;;;;;7.97;5.70;;;;;;;;;;5009390;28;20531;-73
2021/09/14 00:34:47;;;;;;;6.60;5.50;;;;;;;;;;5012821;28;20558;-72
2021/09/14 00:37:14;;;;;;;7.20;5.93;;;;;;;;;;5013424;28;20580;-71
2021/09/14 00:39:41;;;;;;;6.70;5.60;;;;;;;;;;5012951;28;20484;-72
2021/09/14 00:42:08;;;;;;;6.20;5.40;;;;;;;;;;5013660;28;20577;-72
2021/09/14 00:44:35;;;;;;;6.63;5.03;;;;;;;;;;5012300;28;20448;-72
2021/09/14 00:47:04;;;;;;;7.37;5.40;;;;;;;;;;5011891;28;20543;-72
2021/09/14 00:49:31;;;;;;;6.73;6.13;;;;;;;;;;5013030;28;20547;-72
2021/09/14 00:51:59;;;;;;;8.93;5.57;;;;;;;;;;5013718;28;21064;-72
2021/09/14 00:54:27;;;;;;;5.80;5.30;;;;;;;;;;5012557;28;20940;-73
2021/09/14 00:56:56;;;;;;;5.73;4.40;;;;;;;;;;5013646;28;20443;-71
2021/09/14 00:59:25;;;;;;;5.90;5.40;;;;;;;;;;5013800;28;20563;-72
2021/09/14 01:01:53;;;;;;;5.53;4.97;;;;;;;;;;5013366;28;20956;-72
2021/09/14 01:04:22;;;;;;;6.40;5.00;;;;;;;;;;5013774;28;20452;-72
2021/09/14 01:06:49;;;;;;;5.80;4.67;;;;;;;;;;5015788;28;20455;-72
2021/09/14 01:09:17;;;;;;;10.80;5.23;;;;;;;;;;5000397;28;20468;-71
2021/09/14 01:11:45;;;;;;;5.90;5.07;;;;;;;;;;4997700;28;20535;-72
2021/09/14 01:14:12;;;;;;;5.83;5.23;;;;;;;;;;5010301;28;20455;-72
2021/09/14 01:16:40;;;;;;;5.10;4.60;;;;;;;;;;5005108;28;20555;-73
2021/09/14 01:19:08;;;;;;;6.10;5.60;;;;;;;;;;5006180;28;21054;-72
2021/09/14 01:21:38;;;;;;;10.80;5.67;;;;;;;;;;5003616;28;20444;-72
2021/09/14 01:24:07;;;;;;;10.40;5.33;;;;;;;;;;5011767;28;20543;-72
2021/09/14 01:26:34;;;;;;;6.60;5.10;;;;;;;;;;4993149;28;20477;-72
2021/09/14 01:29:06;;;;;;;8.30;7.00;;;;;;;;;;4993204;28;20445;-71
2021/09/14 01:31:33;;;;;;;8.07;6.50;;;;;;;;;;5011906;28;20531;-72
2021/09/14 01:34:00;;;;;;;15.07;7.93;;;;;;;;;;5011556;28;20471;-73
2021/09/14 01:36:27;;;;;;;8.83;6.47;;;;;;;;;;5011722;28;20535;-74
2021/09/14 01:38:55;;;;;;;9.70;7.07;;;;;;;;;;5012159;28;20492;-72
2021/09/14 01:41:23;;;;;;;13.00;6.23;;;;;;;;;;5006938;28;20440;-72
2021/09/14 01:43:51;;;;;;;8.27;6.30;;;;;;;;;;5011607;28;20466;-72
2021/09/14 01:46:18;;;;;;;8.30;6.93;;;;;;;;;;5013197;28;20456;-72
2021/09/14 01:48:45;;;;;;;9.43;6.10;;;;;;;;;;5010814;28;20580;-71
2021/09/14 01:51:14;;;;;;;10.10;6.57;;;;;;;;;;5012842;28;20890;-72
2021/09/14 01:53:43;;;;;;;7.00;5.57;;;;;;;;;;5010819;28;20499;-72
2021/09/14 01:56:10;;;;;;;6.23;5.60;;;;;;;;;;5012027;28;20554;-73
2021/09/14 01:58:38;;;;;;;6.53;5.67;;;;;;;;;;5011353;28;20479;-73
2021/09/14 02:01:10;;;;;;;9.20;6.70;;;;;;;;;;4999781;28;20444;-72
2021/09/14 02:03:42;;;;;;;36.80;32.97;;;;;;;;;;5007522;28;20448;-72
2021/09/14 02:34:00;;;;;;;10.93;7.70;;;;;;;;;;5010657;28;20447;-72
2021/09/14 02:39:28;;;;;;;9.80;6.27;;;;;;;;;;4999367;28;20484;-72
2021/09/14 02:58:38;;;;;;;6.80;6.10;;;;;;;;;;5010133;28;20444;-71
2021/09/14 03:01:06;;;;;;;9.70;5.73;;;;;;;;;;5007266;28;20448;-72
2021/09/14 03:03:35;;;;;;;7.30;5.97;;;;;;;;;;5010339;28;20807;-72
2021/09/14 03:06:02;;;;;;;7.80;5.73;;;;;;;;;;5010359;28;20540;-72
2021/09/14 03:08:29;;;;;;;7.77;6.23;;;;;;;;;;5009910;28;20444;-72
2021/09/14 03:10:56;;;;;;;6.37;5.77;;;;;;;;;;5010271;28;20448;-72
2021/09/14 03:13:25;;;;;;;6.07;5.50;;;;;;;;;;5006319;28;20547;-72
2021/09/14 03:15:53;;;;;;;6.73;5.57;;;;;;;;;;5009988;28;20526;-72
2021/09/14 03:18:20;;;;;;;8.83;6.03;;;;;;;;;;5008623;28;20449;-72
2021/09/14 03:20:48;;;;;;;5.93;5.33;;;;;;;;;;4993974;28;20576;-72
2021/09/14 03:23:15;;;;;;;7.27;6.10;;;;;;;;;;4991081;28;20997;-71
2021/09/14 03:25:42;;;;;;;6.13;5.53;;;;;;;;;;4990251;28;20563;-72
2021/09/14 03:28:11;;;;;;;6.47;4.90;;;;;;;;;;4991291;28;20455;-72
2021/09/14 03:30:38;;;;;;;6.73;5.90;;;;;;;;;;4992710;28;20535;-72
2021/09/14 03:33:05;;;;;;;5.70;5.20;;;;;;;;;;4996619;28;20445;-72
2021/09/14 03:35:32;;;;;;;6.13;5.63;;;;;;;;;;5004426;28;20868;-72
2021/09/14 03:38:01;;;;;;;6.93;5.90;;;;;;;;;;5007369;28;20964;-78
2021/09/14 03:40:28;;;;;;;8.53;6.27;;;;;;;;;;5009551;28;20575;-73
2021/09/14 03:42:55;;;;;;;5.80;5.30;;;;;;;;;;5010538;28;20846;-72
2021/09/14 03:45:22;;;;;;;7.83;5.40;;;;;;;;;;4996628;28;20877;-71
2021/09/14 03:47:50;;;;;;;7.10;5.40;;;;;;;;;;4999026;28;20536;-70
2021/09/14 03:50:17;;;;;;;6.57;5.97;;;;;;;;;;4990775;28;20552;-71
2021/09/14 03:52:44;;;;;;;6.93;6.20;;;;;;;;;;4989571;28;20533;-71
2021/09/14 03:55:13;;;;;;;6.13;5.40;;;;;;;;;;4990707;28;20540;-70
2021/09/14 03:57:40;;;;;;;8.30;5.70;;;;;;;;;;5005332;28;20507;-71
2021/09/14 04:00:08;;;;;;;9.00;5.73;;;;;;;;;;5006972;28;20491;-72
2021/09/14 04:02:37;;;;;;;6.50;5.90;;;;;;;;;;4989420;28;20449;-72
2021/09/14 04:05:22;;;;;;;7.80;6.23;;;;;;;;;;4996843;28;20448;-72
2021/09/14 04:08:03;;;;;;;8.20;5.80;;;;;;;;;;5008607;28;20528;-72
2021/09/14 04:10:32;;;;;;;5.90;5.40;;;;;;;;;;5009729;28;20970;-72
2021/09/14 04:12:59;;;;;;;8.40;7.07;;;;;;;;;;5009631;28;20830;-72
2021/09/14 04:15:26;;;;;;;7.00;6.30;;;;;;;;;;5007488;28;21023;-74
2021/09/14 04:17:53;;;;;;;6.30;5.70;;;;;;;;;;4990072;28;20453;-71
2021/09/14 04:20:20;;;;;;;8.63;7.50;;;;;;;;;;4990511;28;20587;-72
2021/09/14 04:22:47;;;;;;;6.07;5.47;;;;;;;;;;4989479;28;20463;-71
2021/09/14 04:25:15;;;;;;;7.90;6.30;;;;;;;;;;4990576;28;20543;-71
2021/09/14 04:27:43;;;;;;;6.20;5.60;;;;;;;;;;4989813;28;20532;-72
2021/09/14 04:30:11;;;;;;;6.20;5.57;;;;;;;;;;4989849;28;20445;-71
2021/09/14 04:32:38;;;;;;;6.13;5.53;;;;;;;;;;4989614;28;20445;-72
2021/09/14 04:35:06;;;;;;;5.70;5.13;;;;;;;;;;4990179;28;21015;-72
2021/09/14 04:37:33;;;;;;;7.90;7.10;;;;;;;;;;4990086;28;20815;-71
2021/09/14 04:40:00;;;;;;;7.83;6.30;;;;;;;;;;5002715;28;20506;-71
2021/09/14 04:42:28;;;;;;;6.93;6.33;;;;;;;;;;4989975;28;20459;-75
2021/09/14 04:44:57;;;;;;;7.17;5.70;;;;;;;;;;4990279;28;20480;-72
2021/09/14 04:47:24;;;;;;;8.73;6.17;;;;;;;;;;4999919;28;20493;-71
2021/09/14 04:49:51;;;;;;;6.67;6.07;;;;;;;;;;4989945;28;20507;-71
2021/09/14 04:52:18;;;;;;;7.67;6.53;;;;;;;;;;4990543;28;20536;-71
2021/09/14 04:54:45;;;;;;;9.10;6.77;;;;;;;;;;4989812;28;21179;-72
2021/09/14 04:57:13;;;;;;;7.87;6.43;;;;;;;;;;4990690;28;20512;-71
2021/09/14 04:59:40;;;;;;;6.63;6.03;;;;;;;;;;4989517;28;20491;-74
2021/09/14 05:02:08;;;;;;;6.87;6.17;;;;;;;;;;4992903;28;20536;-72
2021/09/14 05:04:35;;;;;;;7.50;6.80;;;;;;;;;;5006238;28;20444;-71
2021/09/14 05:07:02;;;;;;;9.07;6.63;;;;;;;;;;5009038;28;20452;-73
2021/09/14 05:09:30;;;;;;;11.00;7.30;;;;;;;;;;5003808;28;20492;-71
2021/09/14 05:11:57;;;;;;;7.60;6.70;;;;;;;;;;4991882;28;20449;-72
2021/09/14 05:14:24;;;;;;;9.07;6.70;;;;;;;;;;4990395;28;20459;-71
2021/09/14 05:16:51;;;;;;;7.40;6.60;;;;;;;;;;4989974;28;20532;-71
2021/09/14 05:19:30;;;;;;;7.97;7.13;;;;;;;;;;4991403;28;20492;-71
2021/09/14 05:21:58;;;;;;;8.60;6.43;;;;;;;;;;4994013;28;20448;-72
2021/09/14 05:24:26;;;;;;;7.57;6.87;;;;;;;;;;4993619;28;20496;-75
2021/09/14 05:26:53;;;;;;;7.20;6.33;;;;;;;;;;4994039;28;20532;-71
2021/09/14 05:29:20;;;;;;;8.67;7.20;;;;;;;;;;4993706;28;20813;-72
2021/09/14 05:31:48;;;;;;;9.30;6.47;;;;;;;;;;4992590;28;21253;-71
2021/09/14 05:34:15;;;;;;;8.47;6.80;;;;;;;;;;4993466;28;20451;-71
2021/09/14 05:36:44;;;;;;;7.93;6.50;;;;;;;;;;4992740;28;20832;-71
2021/09/14 05:39:12;;;;;;;7.63;6.93;;;;;;;;;;5000389;28;20550;-71
2021/09/14 05:41:39;;;;;;;8.90;6.73;;;;;;;;;;4998276;28;21009;-71
2021/09/14 05:44:06;;;;;;;8.87;7.60;;;;;;;;;;4993699;28;20479;-71
2021/09/14 05:46:34;;;;;;;8.73;6.50;;;;;;;;;;5002478;28;20546;-71
2021/09/14 05:49:01;;;;;;;7.07;6.37;;;;;;;;;;4993013;28;20461;-72
2021/09/14 05:51:28;;;;;;;10.70;6.93;;;;;;;;;;4992267;28;20476;-72
2021/09/14 05:53:56;;;;;;;8.90;7.13;;;;;;;;;;4993155;28;20828;-73
2021/09/14 05:56:28;;;;;;;8.27;6.60;;;;;;;;;;4992876;28;20541;-71
2021/09/14 05:58:55;;;;;;;8.83;7.10;;;;;;;;;;4992994;28;20532;-73
2021/09/14 06:01:22;;;;;;;6.80;6.10;;;;;;;;;;4992533;28;20499;-71
2021/09/14 06:03:49;;;;;;;8.10;6.50;;;;;;;;;;4991785;28;21219;-71
2021/09/14 06:06:17;;;;;;;7.37;6.33;;;;;;;;;;4992551;28;20477;-71
2021/09/14 06:08:44;;;;;;;7.90;6.20;;;;;;;;;;4991555;28;20934;-73
2021/09/14 06:11:12;;;;;;;7.93;6.30;;;;;;;;;;4992330;28;20460;-73
2021/09/14 06:13:40;;;;;;;8.93;6.97;;;;;;;;;;4991921;28;20892;-76
2021/09/14 06:16:07;;;;;;;7.17;6.47;;;;;;;;;;4992335;28;21025;-73
2021/09/14 06:18:34;;;;;;;12.23;9.43;;;;;;;;;;4991813;28;20528;-73
2021/09/14 06:21:02;;;;;;;8.70;7.87;;;;;;;;;;4992280;28;20491;-73
2021/09/14 06:23:29;;;;;;;7.93;7.13;;;;;;;;;;4992037;28;20457;-71
2021/09/14 06:25:56;;;;;;;7.63;6.47;;;;;;;;;;4992440;28;20496;-73
2021/09/14 06:28:25;;;;;;;6.70;6.03;;;;;;;;;;4992067;28;20527;-71
2021/09/14 06:30:52;;;;;;;9.20;7.00;;;;;;;;;;4991252;28;20831;-73
2021/09/14 06:33:19;;;;;;;7.13;5.67;;;;;;;;;;4992248;28;20647;-72
2021/09/14 06:35:46;;;;;;;7.57;6.73;;;;;;;;;;4996146;28;20611;-73
2021/09/14 06:38:13;;;;;;;7.60;6.50;;;;;;;;;;5011373;28;20558;-73
2021/09/14 06:40:40;;;;;;;7.33;6.60;;;;;;;;;;5004683;28;20488;-73
2021/09/14 06:43:07;;;;;;;7.40;6.40;;;;;;;;;;4992404;28;20559;-73
2021/09/14 06:45:36;;;;;;;11.83;6.90;;;;;;;;;;4994136;28;20541;-73
2021/09/14 06:48:03;;;;;;;8.00;7.20;;;;;;;;;;4998353;28;20572;-73
2021/09/14 06:50:30;;;;;;;7.50;6.80;;;;;;;;;;4990859;28;20467;-73
2021/09/14 06:52:58;;;;;;;7.60;6.70;;;;;;;;;;4992173;28;20453;-73
2021/09/14 06:55:25;;;;;;;7.30;6.37;;;;;;;;;;4992064;28;20453;-76
2021/09/14 06:57:52;;;;;;;6.90;5.97;;;;;;;;;;4992045;28;20551;-73
2021/09/14 07:00:19;;;;;;;10.23;7.27;;;;;;;;;;4991560;28;20919;-73
2021/09/14 07:02:47;;;;;;;7.90;7.10;;;27.80;99.90;;;;;;4991138;28;20444;-73
2021/09/14 07:05:14;;;;;;;7.60;6.80;;;18.40;99.90;;;;;;4991625;28;20536;-73
2021/09/14 07:07:41;;;;;;;6.97;6.33;;;18.30;99.90;;;;;;4991017;28;20804;-73
2021/09/14 07:10:09;;;;;;;7.27;6.47;;;18.40;99.90;;;;;;4991459;28;20547;-72
2021/09/14 07:12:35;;;;;;;10.70;6.70;;;18.40;99.90;;;;;;4990921;28;20452;-73
2021/09/14 07:15:03;;;;;;;7.27;5.93;;;18.50;99.90;;;;;;4991480;28;20457;-73
2021/09/14 07:17:30;;;;;;;8.60;6.50;;;18.60;99.90;;;;;;4990707;28;20449;-73
2021/09/14 07:19:59;;;;;;;10.80;7.50;;;18.60;99.90;;;;;;4990955;28;20463;-73
2021/09/14 07:22:26;;;;;;;8.60;6.57;;;18.70;99.90;;;;;;4991144;28;20477;-75
2021/09/14 07:24:52;;;;;;;7.67;6.57;;;18.70;99.90;;;;;;4990962;28;20755;-72
2021/09/14 07:27:19;;;;;;;13.10;7.07;;;18.80;99.90;;;;;;4991105;28;20536;-76
2021/09/14 07:29:48;;;;;;;9.10;7.60;;;18.90;94.50;;;;;;4990488;28;21155;-73
2021/09/14 07:32:15;;;;;;;8.57;7.77;;;18.90;93.90;;;;;;4991125;28;20886;-73
2021/09/14 07:34:42;;;;;;;8.23;7.43;;;18.90;47.20;;;;;;4990286;28;20532;-73
2021/09/14 07:37:10;;;;;;;9.27;7.00;;;19.00;20.00;;;;;;4991021;28;20568;-73
2021/09/14 07:39:37;;;;;;;7.80;7.00;;;19.10;1.00;;;;;;5000575;28;20468;-73
2021/09/14 07:42:04;;;;;;;7.57;6.73;;;19.10;1.00;;;;;;4993547;28;20838;-73
2021/09/14 07:44:31;;;;;;;6.83;6.00;;;19.20;1.00;;;;;;4990375;28;20536;-73
2021/09/14 07:46:58;;;;;;;8.93;6.67;;;19.30;1.00;;;;;;5001050;28;20465;-73
2021/09/14 07:49:25;;;;;;;7.47;6.77;;;19.40;1.00;;;;;;4990641;28;20560;-76
2021/09/14 07:51:52;;;;;;;8.37;6.80;;;19.50;99.90;;;;;;4998564;28;20818;-73
2021/09/14 07:54:20;;;;;;;7.77;6.97;;;19.50;1.00;;;;;;5010361;28;21401;-74
2021/09/14 07:56:47;;;;;;;9.00;7.47;;;19.60;99.90;;;;;;5009850;28;20577;-73
2021/09/14 07:59:14;;;;;;;11.93;6.27;;;19.80;99.90;;;;;;5010019;28;20963;-74
2021/09/14 08:01:41;;;;;;;8.87;7.57;;;19.90;1.00;;;;;;5009111;28;20906;-71
2021/09/14 08:04:08;;;;;;;8.10;7.27;;;20.00;1.00;;;;;;5010459;28;20519;-71
2021/09/14 08:06:35;;;;;;;5.63;4.90;;;20.10;99.90;;;;;;5009842;28;20555;-73
2021/09/14 08:09:01;;;;;;;7.20;5.77;;;20.30;1.00;;;;;;5010491;28;20458;-73
2021/09/14 08:11:30;;;;;;;6.30;5.60;;;20.40;99.90;;;;;;5009633;28;20890;-73
2021/09/14 08:13:57;;;;;;;10.10;5.47;;;20.60;3.90;;;;;;5010371;28;20444;-73
2021/09/14 08:16:24;;;;;;;5.13;4.63;;;20.70;99.90;;;;;;5010131;28;20460;-73
2021/09/14 08:18:51;;;;;;;7.13;5.27;;;20.90;1.00;;;;;;5010087;28;20459;-73
2021/09/14 08:21:18;;;;;;;5.27;4.83;;;21.00;99.90;;;;;;5010029;28;20523;-73
2021/09/14 08:23:44;;;;;;;4.93;4.43;;;21.20;62.70;;;;;;5009634;28;20543;-72
2021/09/14 08:26:12;;;;;;;5.07;3.93;;;21.30;1.00;;;;;;5009938;28;20828;-73
2021/09/14 08:28:40;;;;;;;6.13;5.27;;;21.50;99.90;;;;;;5009598;28;20463;-73
2021/09/14 08:31:07;;;;;;;7.20;5.00;;;21.60;99.90;;;;;;5009952;28;20828;-73
2021/09/14 08:33:34;;;;;;;5.47;4.80;;;21.80;99.90;;;;;;5009037;28;20456;-73
2021/09/14 08:36:01;;;;;;;4.33;3.93;;;21.90;99.90;;;;;;5009997;28;20456;-73
2021/09/14 08:38:28;;;;;;;4.87;4.47;;;21.90;75.70;;;;;;5009214;28;20567;-74
2021/09/14 08:40:56;;;;;;;7.60;4.90;;;22.00;2.70;;;;;;5002201;28;20563;-72
2021/09/14 08:43:23;;;;;;;4.97;4.47;;;22.10;1.00;;;;;;4990523;28;20488;-73
2021/09/14 08:45:52;;;;;;;5.80;5.30;;;22.20;1.00;;;;;;4994876;28;20456;-73
2021/09/14 08:48:19;;;;;;;4.73;4.33;;;22.40;1.00;;;;;;4994956;28;20539;-73
2021/09/14 08:50:47;;;;;;;5.33;4.37;;;22.30;1.00;;;;;;4989283;28;20453;-73
2021/09/14 08:53:14;;;;;;;6.10;4.57;;;22.40;1.00;;;;;;4990208;28;20539;-73
2021/09/14 08:55:41;;;;;;;10.40;4.53;;;22.50;1.00;;;;;;4993509;28;20452;-73
2021/09/14 08:58:09;;;;;;;8.30;4.67;;;22.60;1.00;;;;;;4993994;28;20453;-73
2021/09/14 09:00:38;;;;;;;4.93;4.40;;;22.70;1.00;;;;;;4993058;28;20483;-71
2021/09/14 09:03:07;;;;;;;5.30;4.40;;;22.80;1.00;;;;;;4994097;28;20851;-73
2021/09/14 09:05:35;;;;;;;5.67;5.23;;;22.90;1.00;;;;;;4993743;28;20457;-71
2021/09/14 09:08:03;;;;;;;5.70;4.33;;;23.10;99.90;;;;;;4998351;28;20513;-74
2021/09/14 09:10:31;;;;;;;5.10;4.67;;;23.20;99.90;;;;;;5001360;28;20451;-73
2021/09/14 09:13:00;;;;;;;6.00;4.27;;;23.20;99.90;;;;;;5011835;28;20494;-72
2021/09/14 09:15:29;;;;;;;5.40;4.10;;;23.30;99.90;;;;;;5013050;28;20452;-76
2021/09/14 09:18:09;;;;;;;6.40;5.27;;;23.50;99.90;;;;;;5013286;28;20566;-74
2021/09/14 09:20:38;;;;;;;7.47;4.93;;;23.50;99.90;;;;;;5013700;28;20463;-73
2021/09/14 09:23:07;;;;;;;5.10;4.60;;;23.60;99.90;;;;;;5027149;28;20483;-74
2021/09/14 09:25:34;;;;;;;5.27;4.77;;;23.50;99.90;;;;;;5025868;28;20535;-73
2021/09/14 09:28:11;;;;;;;6.00;4.40;;;23.70;99.90;;;;;;5020682;28;20448;-73
2021/09/14 09:30:40;;;;;;;5.07;4.63;;;23.80;99.90;;;;;;5011852;28;20808;-71
2021/09/14 09:33:10;;;;;;;6.73;3.87;;;24.00;41.10;;;;;;5012811;28;20455;-71
2021/09/14 09:35:39;;;;;;;5.80;4.60;;;24.20;1.00;;;;;;5012185;28;20527;-73
2021/09/14 09:38:07;;;;;;;5.50;5.10;;;24.30;1.00;;;;;;5012703;28;20460;-73
2021/09/14 09:40:36;;;;;;;5.40;4.90;;;24.50;1.00;;;;;;5006302;28;20929;-74
2021/09/14 09:43:05;;;;;;;4.43;4.03;;;24.60;1.00;;;;;;4993233;28;20804;-73
2021/09/14 09:45:32;;;;;;;5.50;4.70;;;24.50;1.00;;;;;;4994897;28;20474;-71
2021/09/14 09:48:02;;;;;;;5.40;4.90;;;24.50;1.00;;;;;;5000334;28;20556;-74
2021/09/14 09:50:31;;;;;;;9.50;4.70;;;24.70;1.00;;;;;;4992247;28;20544;-73
2021/09/14 09:53:02;;;;;;;5.10;4.50;;;24.80;1.00;;;;;;4993396;28;20815;-73
2021/09/14 09:55:30;;;;;;;4.80;4.30;;;25.10;1.00;;;;;;4992893;28;20449;-71
2021/09/14 09:57:58;;;;;;;4.93;4.53;;;25.10;1.00;;;;;;4992953;28;20464;-71
2021/09/14 10:00:25;;;;;;;4.47;3.73;;;25.00;1.00;;;;;;4993003;28;20966;-73
2021/09/14 10:02:57;;;;;;;4.33;4.00;;;25.00;1.00;;;;;;4993249;28;20531;-71
2021/09/14 10:05:30;;;;;;;5.53;4.50;;;24.90;1.00;;;;;;4992038;28;20534;-73
2021/09/14 10:08:02;;;;;;;7.03;5.03;;;25.10;1.00;;;;;;4993360;28;20533;-71
2021/09/14 10:10:40;;;;;;;4.23;3.93;;;25.20;1.00;;;;;;4992506;28;20447;-71
2021/09/14 10:13:08;;;;;;;5.67;5.17;;;25.60;1.00;;;;;;4992974;28;20544;-71
2021/09/14 10:15:40;;;;;;;4.50;4.13;;;25.60;1.00;;;;;;4992280;28;20489;-71
2021/09/14 10:18:08;;;;;;;5.10;4.60;;;25.90;99.90;;;;;;4992763;28;20806;-73
2021/09/14 10:20:42;;;;;;;4.43;4.00;;;25.80;99.90;;;;;;4992197;28;20515;-71
2021/09/14 10:23:17;;;;;;;5.43;4.97;;;25.90;99.90;;;;;;4992940;28;20576;-73
2021/09/14 10:25:46;;;;;;;6.30;4.87;;;;;;;;;;4992315;28;20547;-73
2021/09/14 10:28:15;;;;;;;5.00;4.03;;;;;;;;;;4992858;28;20453;-73
2021/09/14 10:30:42;;;;;;;4.53;4.13;;;;;;;;;;4991861;28;20449;-73
2021/09/14 10:33:19;;;;;;;5.13;4.63;;;;;;;;;;4992738;28;20463;-74
2021/09/14 10:35:47;;;;;;;4.83;4.43;;;;;;;;;;4991862;28;20445;-73
2021/09/14 10:38:15;;;;;;;5.23;4.10;;;;;;;;;;4992635;28;20491;-73
2021/09/14 10:40:44;;;;;;;4.90;4.50;;;;;;;;;;5004597;28;20531;-73
2021/09/14 10:43:26;;;;;;;5.40;4.90;;;;;;;;;;4992179;28;20579;-73
2021/09/14 10:45:53;;;;;;;5.33;4.77;;;;;;;;;;4995118;28;20550;-74
2021/09/14 10:48:21;;;;;;;4.70;4.30;;;;;;;;;;4996813;28;20532;-73
2021/09/14 10:50:50;;;;;;;5.03;4.63;;;;;;;;;;4990594;28;20456;-73
2021/09/14 10:53:25;;;;;;;4.77;4.37;;;;;;;;;;4991940;28;20551;-72
2021/09/14 10:55:53;;;;;;;5.37;4.40;;;;;;;;;;4992128;28;20476;-73
2021/09/14 10:58:20;;;;;;;6.43;4.73;;;;;;;;;;4991587;28;20456;-75
2021/09/14 11:00:49;;;;;;;5.70;4.90;;;;;;;;;;4990919;28;20455;-70
2021/09/14 11:03:17;;;;;;;5.77;4.87;;;;;;;;;;4991429;28;20488;-71
2021/09/14 11:05:47;;;;;;;4.93;4.53;;;;;;;;;;4991148;28;20468;-71
2021/09/14 11:08:16;;;;;;;5.10;4.60;;;;;;;;;;4991678;28;20658;-73
2021/09/14 11:10:44;;;;;;;5.67;5.07;;;;;;;;;;4990275;28;20528;-73
2021/09/14 11:13:19;;;;;;;5.97;4.60;;;;;;;;;;4991556;28;20544;-71
2021/09/14 11:15:46;;;;;;;13.80;5.40;;;;;;;;;;4991161;28;20539;-71
2021/09/14 11:18:13;;;;;;;4.33;3.93;;;;;;;;;;4991302;28;20455;-71
2021/09/14 11:20:40;;;;;;;6.63;4.37;;;;;;;;;;4990531;28;20464;-74
2021/09/14 11:23:07;;;;;;;5.20;4.70;;;;;;;;;;4991498;28;20494;-74
2021/09/14 11:25:36;;;;;;;5.27;4.77;;;;;;;;;;4990853;28;20452;-73
2021/09/14 11:28:04;;;;;;;5.03;4.60;;;;;;;;;;4991130;28;21020;-74
2021/09/14 11:30:32;;;;;;;5.60;5.20;;;;;;;;;;4990124;28;20460;-73
2021/09/14 11:33:00;;;;;;;5.40;4.90;;;;;;;;;;4991395;28;20452;-73
2021/09/14 11:35:29;;;;;;;5.67;5.17;;;;;;;;;;4990610;28;20536;-77
2021/09/14 11:38:00;;;;;;;4.87;4.37;;;;;;;;;;4991122;28;20449;-73
2021/09/14 11:40:27;;;;;;;5.00;4.53;;;;;;;;;;4990281;28;20520;-77
2021/09/14 11:42:56;;;;;;;6.63;5.97;;;;;;;;;;4991491;28;20507;-73
2021/09/14 11:45:25;;;;;;;5.47;4.97;;;;;;;;;;4992370;28;20452;-73
2021/09/14 11:47:52;;;;;;;6.53;4.93;;;;;;;;;;4998947;28;20460;-73
2021/09/14 11:50:25;;;;;;;5.40;4.97;;;;;;;;;;4990144;28;20591;-75
2021/09/14 11:53:02;;;;;;;5.70;5.00;;;;;;;;;;4991164;28;20464;-73
2021/09/14 11:55:29;;;;;;;5.10;4.50;;;;;;;;;;4990226;28;20940;-74
2021/09/14 11:57:58;;;;;;;5.07;4.53;;;;;;;;;;4991110;28;20537;-73
2021/09/14 12:00:35;;;;;;;5.07;4.57;;;;;;;;;;4990873;28;20536;-74
2021/09/14 12:03:02;;;;;;;5.73;5.20;;;;;;;;;;4993812;28;20483;-74
2021/09/14 12:05:29;;;;;;;5.30;4.80;;;;;;;;;;5009507;28;20455;-74
2021/09/14 12:07:57;;;;;;;6.37;5.53;;;;;;;;;;5010382;28;20889;-74
2021/09/14 12:10:25;;;;;;;5.87;5.03;;;;;;;;;;5010215;28;20455;-73
2021/09/14 12:12:53;;;;;;;8.00;5.33;;;;;;;;;;5010157;28;20455;-73
2021/09/14 12:15:21;;;;;;;7.50;5.00;;;;;;;;;;5010139;28;20535;-77
2021/09/14 12:17:49;;;;;;;5.70;5.20;;;;;;;;;;5009410;28;20843;-73
2021/09/14 12:20:16;;;;;;;13.57;5.40;;;;;;;;;;5009651;28;20470;-73
2021/09/14 12:22:43;;;;;;;5.60;5.10;;;;;;;;;;5009035;28;21009;-73
2021/09/14 12:25:11;;;;;;;7.70;5.73;;;;;;;;;;5009998;28;20947;-74
2021/09/14 12:27:38;;;;;;;5.37;4.97;;;;;;;;;;5009550;28;20518;-73
2021/09/14 12:30:05;;;;;;;5.83;5.23;;;;;;;;;;5008649;28;20541;-73
2021/09/14 12:32:34;;;;;;;5.83;4.97;;;;;;;;;;5009448;28;20898;-75
2021/09/14 12:35:01;;;;;;;5.10;4.60;;;;;;;;;;5009864;28;20526;-73
2021/09/14 12:37:28;;;;;;;5.50;5.00;;;;;;;;;;5009538;28;20539;-71
2021/09/14 12:39:55;;;;;;;7.60;4.60;;;;;;;;;;5009406;28;20510;-75
2021/09/14 12:42:23;;;;;;;5.80;4.73;;;;;;;;;;4990645;28;20822;-73
2021/09/14 12:44:50;;;;;;;5.30;4.80;;;;;;;;;;4990146;28;20480;-73
2021/09/14 12:47:17;;;;;;;5.57;5.07;;;;;;;;;;5000493;28;20543;-73
2021/09/14 12:49:46;;;;;;;6.30;5.67;;;;;;;;;;4989423;28;20467;-73
2021/09/14 12:52:13;;;;;;;5.53;5.03;;;;;;;;;;4990613;28;20807;-73
2021/09/14 12:54:40;;;;;;;5.00;4.60;;;;;;;;;;4989543;28;20458;-75
2021/09/14 12:57:07;;;;;;;5.50;4.70;;;;;;;;;;4990158;28;20453;-73
2021/09/14 12:59:34;;;;;;;7.10;5.30;;;;;;;;;;4988987;28;20456;-74
2021/09/14 13:02:01;;;;;;;6.00;4.80;;;;;;;;;;4990055;28;21026;-73
2021/09/14 13:04:29;;;;;;;8.43;5.00;;;;;;;;;;4989830;28;20948;-72
2021/09/14 13:06:57;;;;;;;5.27;4.40;;;;;;;;;;4998777;28;20990;-73
2021/09/14 13:09:24;;;;;;;7.00;4.70;;;;;;;;;;5016987;28;20899;-71
2021/09/14 13:11:52;;;;;;;6.07;5.00;;;;;;;;;;5023137;28;20447;-72
2021/09/14 13:17:04;;;;;;;6.03;5.43;;;;;;;;;;5011639;28;20434;-73
2021/09/14 13:19:31;;;;;;;5.07;4.67;;;;;;;;;;5009376;28;20465;-73
2021/09/14 13:21:59;;;;;;;6.00;5.40;;;;;;;;;;5009593;28;20539;-73
2021/09/14 13:24:27;;;;;;;5.87;5.27;;;;;;;;;;5009055;28;21063;-74
2021/09/14 13:26:55;;;;;;;7.57;5.90;;;;;;;;;;5010105;28;20454;-73
2021/09/14 13:29:22;;;;;;;6.07;5.53;;;;;;;;;;5008969;28;20205;-73
2021/09/14 13:31:49;;;;;;;6.77;5.50;;;;;;;;;;5009067;28;20206;-72
2021/09/14 13:34:17;;;;;;;5.87;5.23;;;;;;;;;;5009431;28;20296;-71
2021/09/14 13:36:44;;;;;;;5.83;5.33;;;;;;;;;;5008719;28;20542;-72
2021/09/14 13:39:12;;;;;;;6.30;5.80;;;;;;;;;;5009227;28;20637;-72
2021/09/14 13:41:42;;;;;;;5.60;5.10;;;;;;;;;;4998339;28;20507;-76
2021/09/14 13:46:54;;;;;;;6.20;5.60;;;;;;;;;;5003400;28;20260;-72
2021/09/14 13:49:21;;;;;;;8.13;6.23;;;;;;;;;;4992567;28;20483;-72
2021/09/14 13:51:50;;;;;;;9.90;6.13;;;;;;;;;;4992857;28;20523;-72
2021/09/14 13:54:18;;;;;;;6.93;5.47;;;;;;;;;;4993271;28;20551;-72
2021/09/14 13:56:45;;;;;;;9.23;6.20;;;;;;;;;;4992574;28;20597;-72
2021/09/14 13:59:13;;;;;;;5.20;4.80;;;;;;;;;;4992719;28;20696;-72
2021/09/14 14:01:40;;;;;;;5.50;4.73;;;;;;;;;;4992086;28;20953;-76
2021/09/14 14:04:07;;;;;;;5.93;5.33;;;;;;;;;;4992798;28;20228;-72
2021/09/14 14:06:34;;;;;;;6.00;5.40;;;;;;;;;;4992213;28;20695;-72
2021/09/14 14:09:02;;;;;;;7.37;6.60;;;;;;;;;;4992359;28;20208;-73
2021/09/14 14:11:30;;;;;;;6.20;5.70;;;;;;;;;;4992328;28;20229;-73
2021/09/14 14:13:58;;;;;;;7.00;6.30;;;;;;;;;;4992689;28;20211;-73
2021/09/14 14:16:25;;;;;;;8.63;6.50;;;;;;;;;;4992958;28;20325;-74
2021/09/14 14:18:52;;;;;;;8.77;7.10;;;;;;;;;;4992632;28;20312;-72
2021/09/14 14:21:19;;;;;;;6.50;5.87;;;;;;;;;;4992352;28;20320;-76
2021/09/14 14:23:47;;;;;;;7.13;5.97;;;;;;;;;;4991939;28;20232;-72
2021/09/14 14:26:14;;;;;;;7.27;6.57;;;;;;;;;;4992518;28;20208;-72
2021/09/14 14:28:42;;;;;;;7.20;6.50;;;;;;;;;;4991436;28;20201;-72
2021/09/14 14:31:09;;;;;;;5.17;4.67;;;;;;;;;;4992378;28;20208;-72
2021/09/14 14:33:38;;;;;;;9.13;6.93;;;;;;;;;;4991749;28;20291;-72
2021/09/14 14:36:05;;;;;;;5.57;5.10;;;;;;;;;;4992596;28;20205;-73
2021/09/14 14:38:38;;;;;;;7.90;6.95;;;;;;;;;;4993248;28;20295;-74
2021/09/14 14:41:05;;;;;;;7.28;6.43;;;;;;;;;;5002648;28;20197;-73
2021/09/14 14:43:32;;;;;;;6.97;6.30;;;;;;;;;;4991637;28;20225;-73
2021/09/14 14:46:01;;;;;;;6.87;6.20;;;;;;;;;;4998045;28;20251;-73
2021/09/14 14:48:29;;;;;;;6.00;5.23;;;;;;;;;;4995062;28;20212;-75
2021/09/14 14:50:56;;;;;;;8.17;6.20;;;;;;;;;;4991601;28;20201;-74
2021/09/14 14:53:23;;;;;;;6.90;6.20;;;;;;;;;;4991528;28;20580;-73
2021/09/14 14:55:50;;;;;;;6.23;5.70;;;;;;;;;;4991281;28;20280;-74
2021/09/14 14:58:17;;;;;;;22.60;13.55;;;;;;;;;;4992065;28;20284;-73
2021/09/14 15:00:45;;;;;;;11.73;8.15;;;;;;;;;;4991109;28;20631;-73
2021/09/14 15:03:13;;;;;;;12.23;10.50;;;;;;;;;;4991675;28;20228;-73
2021/09/14 15:05:41;;;;;;;13.10;10.50;;;;;;;;;;4990695;28;20304;-73
2021/09/14 15:08:08;;;;;;;12.37;9.60;;;;;;;;;;4991665;28;20211;-72
2021/09/14 15:10:35;;;;;;;17.60;9.75;;;;;;;;;;4990714;28;20205;-73